Time;durP1;ratioP1;P1;durP2;ratioP2;P2;SDS_P1;SDS_P2;PMS_P1;PMS_P2;Temp;Humidity;BMP_temperature;BMP_pressure;BME280_temperature;BME280_humidity;BME280_pressure;Samples;Min_cycle;Max_cycle;Signal;HPM_P1;HPM_P2
2024/02/07 00:00:15;;;;;;;15.50;14.90;;;10.20;99.90;;;;;;5048978;28;20488;-70
2024/02/07 00:02:42;;;;;;;14.67;14.17;;;10.20;99.90;;;;;;5050995;28;20469;-70
2024/02/07 00:05:09;;;;;;;14.87;14.27;;;10.20;99.90;;;;;;5047625;28;20491;-72
2024/02/07 00:07:37;;;;;;;15.03;14.43;;;10.20;99.90;;;;;;5054100;28;20466;-73
2024/02/07 00:10:05;;;;;;;15.20;14.60;;;10.20;99.90;;;;;;5051523;28;20462;-73
2024/02/07 00:12:33;;;;;;;15.07;14.47;;;10.20;99.90;;;;;;5049167;28;20989;-71
2024/02/07 00:15:01;;;;;;;15.00;14.50;;;10.20;99.90;;;;;;5054899;28;21010;-72
2024/02/07 00:17:27;;;;;;;15.43;14.83;;;10.30;99.90;;;;;;5050716;28;21085;-73
2024/02/07 00:19:54;;;;;;;14.83;14.33;;;10.30;99.90;;;;;;5053009;28;20545;-72
2024/02/07 00:22:21;;;;;;;13.43;13.03;;;10.30;99.90;;;;;;5055313;28;20470;-72
2024/02/07 00:24:48;;;;;;;13.37;12.97;;;10.30;99.90;;;;;;5052727;28;20464;-72
2024/02/07 00:27:15;;;;;;;13.13;12.73;;;10.30;99.90;;;;;;5050304;28;21075;-72
2024/02/07 00:29:44;;;;;;;13.07;12.67;;;10.30;99.90;;;;;;5050191;28;20996;-72
2024/02/07 00:32:26;;;;;;;13.37;12.97;;;10.30;99.90;;;;;;5050437;28;20473;-73
2024/02/07 00:34:52;;;;;;;13.60;13.20;;;10.30;99.90;;;;;;5049434;28;20461;-72
2024/02/07 00:37:19;;;;;;;13.43;13.03;;;10.40;99.90;;;;;;5053638;28;20468;-71
2024/02/07 00:39:46;;;;;;;14.00;13.60;;;10.40;99.90;;;;;;5053512;28;20458;-71
2024/02/07 00:42:13;;;;;;;13.37;12.97;;;10.40;99.90;;;;;;5057335;28;20511;-73
2024/02/07 00:44:40;;;;;;;13.63;13.23;;;10.40;99.90;;;;;;5052238;28;20535;-73
2024/02/07 00:47:10;;;;;;;14.10;13.60;;;10.40;99.90;;;;;;5059987;28;20545;-72
2024/02/07 00:49:37;;;;;;;14.10;13.60;;;10.40;99.90;;;;;;5048577;28;20460;-72
2024/02/07 00:52:08;;;;;;;13.67;13.27;;;10.40;99.90;;;;;;5048515;28;20952;-70
2024/02/07 00:54:35;;;;;;;14.00;13.53;;;10.40;99.90;;;;;;5056351;28;20467;-73
2024/02/07 00:57:02;;;;;;;14.00;13.60;;;10.40;99.90;;;;;;5048950;28;20498;-71
2024/02/07 00:59:29;;;;;;;13.70;13.30;;;10.40;99.90;;;;;;5055754;28;20587;-72
2024/02/07 01:01:56;;;;;;;13.17;12.77;;;10.40;99.90;;;;;;5051607;28;20451;-74
2024/02/07 01:04:25;;;;;;;13.37;12.97;;;10.40;99.90;;;;;;5052773;28;20536;-74
2024/02/07 01:06:53;;;;;;;13.87;13.47;;;10.40;99.90;;;;;;5050849;28;20493;-74
2024/02/07 01:09:20;;;;;;;13.80;13.40;;;10.40;99.90;;;;;;5054592;28;20553;-72
2024/02/07 01:11:48;;;;;;;13.60;13.20;;;10.40;99.90;;;;;;5050055;28;20873;-72
2024/02/07 01:14:15;;;;;;;13.47;13.07;;;10.40;99.90;;;;;;5054386;28;20534;-73
2024/02/07 01:16:42;;;;;;;12.83;12.43;;;10.30;99.90;;;;;;5050752;28;20504;-72
2024/02/07 01:19:09;;;;;;;12.87;12.50;;;10.30;99.90;;;;;;5047565;28;20477;-72
2024/02/07 01:21:37;;;;;;;12.40;12.10;;;10.30;99.90;;;;;;5050583;28;20466;-72
2024/02/07 01:24:06;;;;;;;13.30;12.90;;;10.20;99.90;;;;;;5046618;28;20464;-75
2024/02/07 01:26:35;;;;;;;12.63;12.33;;;10.20;99.90;;;;;;5052941;28;20664;-70
2024/02/07 01:29:01;;;;;;;12.60;12.30;;;10.20;99.90;;;;;;5047170;28;20452;-71
2024/02/07 01:31:29;;;;;;;12.80;12.50;;;10.20;99.90;;;;;;5054618;28;20491;-71
2024/02/07 01:33:56;;;;;;;13.47;13.07;;;10.20;99.90;;;;;;5053659;28;20996;-71
2024/02/07 01:36:24;;;;;;;13.00;12.60;;;10.30;99.90;;;;;;5053190;28;20696;-72
2024/02/07 01:38:54;;;;;;;12.57;12.27;;;10.30;99.90;;;;;;5051157;28;20499;-72
2024/02/07 01:41:23;;;;;;;12.17;11.87;;;10.30;99.90;;;;;;5056897;28;20463;-73
2024/02/07 01:43:51;;;;;;;11.37;11.07;;;10.30;99.90;;;;;;5055901;28;20468;-74
2024/02/07 01:46:18;;;;;;;13.17;12.77;;;10.20;99.90;;;;;;5054646;28;20563;-72
2024/02/07 01:48:45;;;;;;;12.53;12.23;;;10.20;99.90;;;;;;5054778;28;20457;-72
2024/02/07 01:51:13;;;;;;;12.80;12.50;;;10.20;99.90;;;;;;5052268;28;20462;-71
2024/02/07 01:53:41;;;;;;;13.60;13.20;;;10.20;99.90;;;;;;5049751;28;20473;-71
2024/02/07 01:56:10;;;;;;;12.77;12.47;;;10.20;99.90;;;;;;5049507;28;20463;-72
2024/02/07 01:58:37;;;;;;;12.90;12.60;;;10.20;99.90;;;;;;5046707;28;20487;-70
2024/02/07 02:01:04;;;;;;;12.70;12.40;;;10.20;99.90;;;;;;5054244;28;20885;-74
2024/02/07 02:03:31;;;;;;;12.93;12.63;;;10.20;99.90;;;;;;5050301;28;21004;-72
2024/02/07 02:06:00;;;;;;;12.03;11.73;;;10.20;99.90;;;;;;5053931;28;20860;-70
2024/02/07 02:08:27;;;;;;;12.57;12.27;;;10.20;99.90;;;;;;5049753;28;20469;-71
2024/02/07 02:11:05;;;;;;;12.03;11.73;;;10.20;99.90;;;;;;5049560;28;20471;-74
2024/02/07 02:13:34;;;;;;;12.37;12.07;;;10.20;99.90;;;;;;5053529;28;21015;-75
2024/02/07 02:16:02;;;;;;;13.03;12.73;;;10.20;99.90;;;;;;5055824;28;20839;-75
2024/02/07 02:18:30;;;;;;;13.57;13.17;;;10.20;99.90;;;;;;5050636;28;20568;-73
2024/02/07 02:20:57;;;;;;;12.23;11.93;;;10.20;99.90;;;;;;5056035;28;20484;-72
2024/02/07 02:23:51;;;;;;;12.53;12.23;;;10.20;99.90;;;;;;5048354;28;20460;-74
2024/02/07 02:26:48;;;;;;;12.40;12.10;;;10.20;99.90;;;;;;5048149;28;20554;-72
2024/02/07 02:29:25;;;;;;;13.23;12.83;;;10.20;99.90;;;;;;5046341;28;20522;-72
2024/02/07 02:31:57;;;;;;;12.63;12.33;;;10.20;99.90;;;;;;5059980;28;20466;-71
2024/02/07 02:34:26;;;;;;;12.10;11.80;;;10.20;99.90;;;;;;5052182;28;20467;-73
2024/02/07 02:36:54;;;;;;;12.33;12.03;;;10.20;99.90;;;;;;5048855;28;20472;-71
2024/02/07 02:39:22;;;;;;;12.47;12.17;;;10.20;99.90;;;;;;5045079;28;21009;-71
2024/02/07 02:41:48;;;;;;;12.37;12.07;;;10.20;99.90;;;;;;5054115;28;20986;-72
2024/02/07 02:44:16;;;;;;;11.43;11.20;;;10.20;99.90;;;;;;5051993;28;20468;-73
2024/02/07 02:46:44;;;;;;;11.77;11.47;;;10.20;99.90;;;;;;5052201;28;20473;-71
2024/02/07 02:49:11;;;;;;;11.43;11.20;;;10.20;99.90;;;;;;5047438;28;20479;-71
2024/02/07 02:51:38;;;;;;;11.43;11.23;;;10.10;99.90;;;;;;5052016;28;20470;-71
2024/02/07 02:54:06;;;;;;;10.93;10.73;;;10.10;99.90;;;;;;5055213;28;20839;-71
2024/02/07 02:56:33;;;;;;;11.70;11.40;;;10.10;99.90;;;;;;5046808;28;20549;-72
2024/02/07 02:59:05;;;;;;;11.80;11.50;;;10.20;99.90;;;;;;5049147;28;21036;-71
2024/02/07 03:01:32;;;;;;;11.63;11.33;;;10.20;99.90;;;;;;5055666;28;20550;-72
2024/02/07 03:04:03;;;;;;;11.30;11.10;;;10.20;99.90;;;;;;5053679;28;20473;-75
2024/02/07 03:06:37;;;;;;;11.17;10.97;;;10.10;99.90;;;;;;5047743;28;20480;-73
2024/02/07 03:09:09;;;;;;;11.57;11.30;;;10.10;99.90;;;;;;5053510;28;20488;-71
2024/02/07 03:11:36;;;;;;;10.77;10.57;;;10.10;99.90;;;;;;5052630;28;20978;-72
2024/02/07 03:14:05;;;;;;;11.03;10.83;;;10.10;99.90;;;;;;5056740;28;20791;-73
2024/02/07 03:16:33;;;;;;;10.93;10.73;;;10.10;99.90;;;;;;5060476;28;20460;-74
2024/02/07 03:19:01;;;;;;;11.40;11.20;;;10.10;99.90;;;;;;5049497;28;20473;-75
2024/02/07 03:21:28;;;;;;;11.13;10.93;;;10.10;99.90;;;;;;5060702;28;20853;-73
2024/02/07 03:23:55;;;;;;;10.57;10.37;;;10.10;99.90;;;;;;5056549;28;20460;-72
2024/02/07 03:26:22;;;;;;;12.07;11.77;;;10.10;99.90;;;;;;5056230;28;20487;-73
2024/02/07 03:28:51;;;;;;;12.00;11.70;;;10.10;99.90;;;;;;5052308;28;20485;-75
2024/02/07 03:31:18;;;;;;;12.17;11.87;;;10.10;99.90;;;;;;5059060;28;20925;-72
2024/02/07 03:33:45;;;;;;;12.57;12.27;;;10.10;99.90;;;;;;5052633;28;20923;-75
2024/02/07 03:36:13;;;;;;;12.67;12.37;;;10.10;99.90;;;;;;5055721;28;20517;-73
2024/02/07 03:38:40;;;;;;;13.07;12.77;;;10.10;99.90;;;;;;5055391;28;20890;-72
2024/02/07 03:41:09;;;;;;;13.07;12.77;;;10.00;99.90;;;;;;5060973;28;20473;-72
2024/02/07 03:43:36;;;;;;;13.90;13.50;;;10.10;99.90;;;;;;5046662;28;20540;-72
2024/02/07 03:46:05;;;;;;;13.13;12.83;;;10.10;99.90;;;;;;5051024;28;20557;-75
2024/02/07 03:48:32;;;;;;;13.00;12.70;;;10.10;99.90;;;;;;5055793;28;20463;-72
2024/02/07 03:50:59;;;;;;;12.30;12.00;;;10.00;99.90;;;;;;5056723;28;20460;-74
2024/02/07 03:53:30;;;;;;;12.30;12.00;;;10.00;99.90;;;;;;5052958;28;20456;-73
2024/02/07 03:55:57;;;;;;;11.90;11.60;;;10.00;99.90;;;;;;5048126;28;20875;-73
2024/02/07 03:58:25;;;;;;;11.40;11.20;;;10.00;99.90;;;;;;5053005;28;20838;-72
2024/02/07 04:00:53;;;;;;;10.97;10.77;;;10.00;99.90;;;;;;5059899;28;20530;-73
2024/02/07 04:03:20;;;;;;;12.17;11.87;;;10.00;99.90;;;;;;5053860;28;20458;-75
2024/02/07 04:05:47;;;;;;;11.40;11.20;;;10.00;99.90;;;;;;5051122;28;20464;-73
2024/02/07 04:08:14;;;;;;;12.43;12.13;;;10.00;99.90;;;;;;5060290;28;21016;-74
2024/02/07 04:10:42;;;;;;;11.57;11.30;;;10.00;99.90;;;;;;5056071;28;20469;-72
2024/02/07 05:16:04;;;;;;;13.20;12.90;;;5.50;99.90;;;;;;5059475;28;20462;-74
2024/02/07 05:18:31;;;;;;;13.90;13.50;;;5.40;99.90;;;;;;5047952;28;20468;-73
2024/02/07 05:20:58;;;;;;;14.10;13.70;;;5.40;99.90;;;;;;5049322;28;20470;-75
2024/02/07 05:23:25;;;;;;;14.73;14.33;;;5.40;99.90;;;;;;5051403;28;20890;-73
2024/02/07 05:25:53;;;;;;;15.23;14.83;;;5.30;99.90;;;;;;5050079;28;20468;-72
2024/02/07 05:28:21;;;;;;;16.60;16.10;;;5.30;99.90;;;;;;5050688;28;20506;-72
2024/02/07 05:30:48;;;;;;;16.30;15.80;;;5.20;99.90;;;;;;5052353;28;20459;-74
2024/02/07 05:33:16;;;;;;;15.90;15.40;;;5.10;99.90;;;;;;5052808;28;20462;-73
2024/02/07 05:35:43;;;;;;;17.10;16.60;;;5.10;99.90;;;;;;5056427;28;21141;-72
2024/02/07 05:38:10;;;;;;;18.00;17.40;;;5.10;99.90;;;;;;5046132;28;20807;-72
2024/02/07 05:40:37;;;;;;;18.20;17.60;;;5.10;99.90;;;;;;5049156;28;20501;-72
2024/02/07 05:43:05;;;;;;;18.33;17.73;;;5.10;99.90;;;;;;5052359;28;20470;-72
2024/02/07 05:45:32;;;;;;;18.53;17.93;;;5.10;99.90;;;;;;5048958;28;20453;-72
2024/02/07 05:47:59;;;;;;;17.70;17.10;;;5.20;99.90;;;;;;5047191;28;20514;-74
2024/02/07 05:50:27;;;;;;;19.80;19.10;;;5.10;99.90;;;;;;5044527;28;20838;-73
2024/02/07 05:52:54;;;;;;;20.07;19.37;;;5.10;99.90;;;;;;5049931;28;20832;-73
2024/02/07 05:55:22;;;;;;;19.70;19.00;;;5.00;99.90;;;;;;5049718;28;20466;-77
2024/02/07 05:57:49;;;;;;;20.13;19.43;;;5.00;99.90;;;;;;5049589;28;20502;-72
2024/02/07 06:00:17;;;;;;;20.30;19.60;;;5.00;99.90;;;;;;5052924;28;20473;-73
2024/02/07 06:02:45;;;;;;;20.10;19.40;;;5.00;99.90;;;;;;5051456;28;20467;-72
2024/02/07 06:05:12;;;;;;;20.60;19.90;;;5.00;99.90;;;;;;5045045;28;20958;-72
2024/02/07 06:07:40;;;;;;;21.73;20.93;;;5.10;99.90;;;;;;5049673;28;20698;-72
2024/02/07 06:10:08;;;;;;;21.70;20.90;;;5.10;99.90;;;;;;5046477;28;20460;-72
2024/02/07 06:12:36;;;;;;;21.53;20.73;;;5.10;99.90;;;;;;5051519;28;20891;-72
2024/02/07 06:15:03;;;;;;;21.87;21.07;;;5.10;99.90;;;;;;5050098;28;20950;-72
2024/02/07 06:17:30;;;;;;;22.87;21.97;;;5.00;99.90;;;;;;5057839;28;20831;-72
2024/02/07 06:19:57;;;;;;;22.27;21.43;;;5.10;99.90;;;;;;5043045;28;20496;-72
2024/02/07 06:22:24;;;;;;;23.03;22.13;;;5.10;99.90;;;;;;5052849;28;20467;-72
2024/02/07 06:24:52;;;;;;;23.00;22.10;;;5.10;99.90;;;;;;5048744;28;20506;-72
2024/02/07 06:27:19;;;;;;;23.07;22.17;;;5.00;99.90;;;;;;5053405;28;20488;-75
2024/02/07 06:29:46;;;;;;;22.57;21.67;;;5.10;99.90;;;;;;5050337;28;20813;-75
2024/02/07 06:32:13;;;;;;;20.77;19.97;;;5.00;99.90;;;;;;5046501;28;20460;-74
2024/02/07 06:34:39;;;;;;;21.10;20.30;;;4.90;99.90;;;;;;5052181;28;20464;-73
2024/02/07 06:37:06;;;;;;;22.20;21.30;;;4.90;99.90;;;;;;5050294;28;20552;-76
2024/02/07 06:39:34;;;;;;;21.93;21.13;;;5.00;99.90;;;;;;5049889;28;20468;-75
2024/02/07 06:42:02;;;;;;;22.03;21.23;;;4.90;99.90;;;;;;5052157;28;20463;-74
2024/02/07 06:44:29;;;;;;;21.17;20.37;;;4.90;99.90;;;;;;5052545;28;20475;-73
2024/02/07 06:46:56;;;;;;;22.13;21.33;;;4.90;99.90;;;;;;5057074;28;20456;-72
2024/02/07 06:49:23;;;;;;;22.70;21.80;;;4.90;99.90;;;;;;5058290;28;20452;-72
2024/02/07 06:51:51;;;;;;;22.40;21.50;;;4.90;99.90;;;;;;5059147;28;20458;-72
2024/02/07 06:54:18;;;;;;;21.50;20.70;;;4.80;99.90;;;;;;5050841;28;20576;-72
2024/02/07 06:56:45;;;;;;;22.50;21.60;;;4.90;99.90;;;;;;5050722;28;20497;-72
2024/02/07 06:59:13;;;;;;;22.30;21.50;;;4.70;99.90;;;;;;5051485;28;20478;-72
2024/02/07 07:01:40;;;;;;;22.20;21.30;;;4.70;99.90;;;;;;5054951;28;20459;-72
2024/02/07 07:04:07;;;;;;;22.93;22.03;;;4.60;99.90;;;;;;5050281;28;20463;-73
2024/02/07 07:06:34;;;;;;;22.80;21.90;;;4.60;99.90;;;;;;5053568;28;20475;-72
2024/02/07 07:09:01;;;;;;;23.20;22.30;;;4.70;99.90;;;;;;5046656;28;20487;-72
2024/02/07 07:11:28;;;;;;;22.70;21.80;;;4.80;99.90;;;;;;5058841;28;20461;-72
2024/02/07 07:13:57;;;;;;;23.50;22.50;;;4.80;99.90;;;;;;5052388;28;20554;-72
2024/02/07 07:16:25;;;;;;;23.70;22.70;;;4.70;99.90;;;;;;5047875;28;20468;-72
2024/02/07 07:18:53;;;;;;;23.80;22.80;;;4.70;99.90;;;;;;5052035;28;20464;-72
2024/02/07 07:21:20;;;;;;;23.40;22.40;;;4.60;99.90;;;;;;5050155;28;20499;-72
2024/02/07 07:23:47;;;;;;;24.10;23.10;;;4.60;99.90;;;;;;5044909;28;20492;-72
2024/02/07 07:26:14;;;;;;;24.50;23.50;;;4.70;99.90;;;;;;5048609;28;20822;-72
2024/02/07 07:28:41;;;;;;;23.97;22.97;;;4.60;99.90;;;;;;5054694;28;20476;-72
2024/02/07 07:31:08;;;;;;;24.77;23.77;;;4.60;99.90;;;;;;5054225;28;20845;-72
2024/02/07 07:33:36;;;;;;;22.70;21.80;;;4.60;99.90;;;;;;5056798;28;20474;-72
2024/02/07 07:36:03;;;;;;;24.30;23.30;;;4.60;99.90;;;;;;5050609;28;20452;-72
2024/02/07 07:38:30;;;;;;;25.07;24.07;;;4.60;99.90;;;;;;5053044;28;20888;-72
2024/02/07 07:40:57;;;;;;;24.50;23.50;;;4.70;99.90;;;;;;5046405;28;20459;-72
2024/02/07 07:43:24;;;;;;;25.43;24.33;;;4.70;99.90;;;;;;5056948;28;20517;-72
2024/02/07 07:45:50;;;;;;;25.10;24.00;;;4.80;99.90;;;;;;5052324;28;20534;-72
2024/02/07 07:48:17;;;;;;;26.37;25.17;;;4.90;99.90;;;;;;5052140;28;20483;-72
2024/02/07 07:50:45;;;;;;;27.33;26.13;;;4.90;99.90;;;;;;5057404;28;20731;-72
2024/02/07 07:53:12;;;;;;;27.00;25.80;;;4.90;99.90;;;;;;5047833;28;20466;-72
2024/02/07 07:55:39;;;;;;;27.00;25.80;;;4.90;99.90;;;;;;5055138;28;20467;-72
2024/02/07 07:58:06;;;;;;;27.07;25.77;;;4.90;99.90;;;;;;5053709;28;20878;-72
2024/02/07 08:00:33;;;;;;;27.10;25.80;;;5.00;99.90;;;;;;5049186;28;20497;-72
2024/02/07 08:03:00;;;;;;;28.27;26.87;;;5.00;99.90;;;;;;5053557;28;20463;-72
2024/02/07 08:05:27;;;;;;;26.60;25.30;;;5.00;99.90;;;;;;5055142;28;20460;-72
2024/02/07 08:07:56;;;;;;;29.30;27.90;;;5.00;99.90;;;;;;5053547;28;20793;-72
2024/02/07 08:10:23;;;;;;;28.90;27.50;;;5.00;99.90;;;;;;5049519;28;20878;-73
2024/02/07 08:12:49;;;;;;;29.23;27.83;;;5.00;99.90;;;;;;5053521;28;20460;-73
2024/02/07 08:15:16;;;;;;;29.17;27.77;;;5.00;99.90;;;;;;5047777;28;20469;-72
2024/02/07 08:17:43;;;;;;;28.03;26.73;;;4.90;99.90;;;;;;5053667;28;20456;-73
2024/02/07 08:20:11;;;;;;;27.20;25.90;;;4.90;99.90;;;;;;5047355;28;20465;-73
2024/02/07 08:22:38;;;;;;;27.43;26.07;;;4.90;99.90;;;;;;5055177;28;20452;-73
2024/02/07 08:25:08;;;;;;;27.47;26.17;;;4.80;99.90;;;;;;5045545;28;20627;-73
2024/02/07 08:27:35;;;;;;;28.63;27.23;;;4.70;99.90;;;;;;5050141;28;20476;-73
2024/02/07 08:30:01;;;;;;;28.80;27.40;;;4.70;99.90;;;;;;5052947;28;20842;-72
2024/02/07 08:32:27;;;;;;;28.47;27.07;;;4.70;99.90;;;;;;5052720;28;20971;-72
2024/02/07 08:34:54;;;;;;;28.60;27.20;;;4.60;99.90;;;;;;5049434;28;20468;-72
2024/02/07 08:37:25;;;;;;;28.60;27.20;;;4.60;99.90;;;;;;5052119;28;20661;-73
2024/02/07 08:39:52;;;;;;;29.07;27.67;;;4.60;99.90;;;;;;5051058;28;20505;-72
2024/02/07 08:42:21;;;;;;;29.10;27.70;;;4.80;99.90;;;;;;5050388;28;20472;-72
2024/02/07 08:44:48;;;;;;;28.50;27.10;;;4.80;99.90;;;;;;5047470;28;20492;-72
2024/02/07 08:47:15;;;;;;;29.83;28.33;;;4.80;99.90;;;;;;5050649;28;20453;-72
2024/02/07 08:49:42;;;;;;;28.90;27.50;;;4.90;99.90;;;;;;5050180;28;20572;-72
2024/02/07 08:52:09;;;;;;;30.47;28.97;;;4.80;99.90;;;;;;5059213;28;20826;-72
2024/02/07 08:54:35;;;;;;;29.67;28.17;;;4.80;99.90;;;;;;5053339;28;20482;-72
2024/02/07 08:57:02;;;;;;;28.90;27.47;;;4.80;99.90;;;;;;5049929;28;20457;-73
2024/02/07 08:59:32;;;;;;;31.93;30.33;;;4.80;99.90;;;;;;5042427;28;20516;-72
2024/02/07 09:01:58;;;;;;;30.47;28.87;;;4.90;99.90;;;;;;5054336;28;20471;-76
2024/02/07 09:04:26;;;;;;;31.60;29.90;;;5.00;99.90;;;;;;5054303;28;20453;-74
2024/02/07 09:06:53;;;;;;;32.27;30.67;;;5.00;99.90;;;;;;5053275;28;20510;-73
2024/02/07 09:09:20;;;;;;;32.57;30.87;;;4.80;99.90;;;;;;5050030;28;20492;-73
2024/02/07 09:11:47;;;;;;;34.70;32.90;;;4.90;99.90;;;;;;5054066;28;20463;-72
2024/02/07 09:14:14;;;;;;;37.40;35.40;;;5.00;99.90;;;;;;5056327;28;20460;-74
2024/02/07 09:16:42;;;;;;;35.10;33.20;;;5.10;99.90;;;;;;5046872;28;20476;-75
2024/02/07 09:19:09;;;;;;;35.73;33.73;;;5.20;99.90;;;;;;5043441;28;20843;-75
2024/02/07 09:21:36;;;;;;;37.20;35.20;;;5.10;99.90;;;;;;5054820;28;20549;-71
2024/02/07 09:24:04;;;;;;;38.53;36.33;;;5.10;99.90;;;;;;5049615;28;20450;-72
2024/02/07 09:26:32;;;;;;;36.90;34.80;;;5.40;99.90;;;;;;5049960;28;20554;-75
2024/02/07 09:28:59;;;;;;;38.77;36.57;;;5.40;99.90;;;;;;5047869;28;20493;-72
2024/02/07 09:31:26;;;;;;;39.37;37.07;;;5.40;99.90;;;;;;5052654;28;20665;-74
2024/02/07 09:33:54;;;;;;;37.10;35.00;;;5.50;99.90;;;;;;5045521;28;20467;-75
2024/02/07 09:36:20;;;;;;;35.93;33.93;;;5.40;99.90;;;;;;5048436;28;20457;-74
2024/02/07 09:38:47;;;;;;;38.10;36.00;;;5.20;99.90;;;;;;5046599;28;20479;-76
2024/02/07 09:41:16;;;;;;;38.97;36.67;;;5.10;99.90;;;;;;5053514;28;20475;-72
2024/02/07 09:43:45;;;;;;;39.70;37.30;;;5.10;99.90;;;;;;5048370;28;20499;-74
2024/02/07 09:46:15;;;;;;;40.83;38.43;;;5.20;99.90;;;;;;5047336;28;20979;-75
2024/02/07 09:48:43;;;;;;;38.77;36.47;;;5.30;99.90;;;;;;5053614;28;20486;-72
2024/02/07 09:51:14;;;;;;;39.90;37.50;;;5.30;99.90;;;;;;5043921;28;20465;-75
2024/02/07 09:53:42;;;;;;;39.87;37.47;;;5.40;99.90;;;;;;5053530;28;20923;-76
2024/02/07 09:56:09;;;;;;;39.87;37.40;;;5.60;99.90;;;;;;5046604;28;20499;-73
2024/02/07 09:58:36;;;;;;;39.73;37.33;;;5.60;99.90;;;;;;5049986;28;20504;-75
2024/02/07 10:01:06;;;;;;;36.73;34.53;;;5.50;99.90;;;;;;5054819;28;21046;-74
2024/02/07 10:03:36;;;;;;;36.80;34.60;;;5.50;99.90;;;;;;5055066;28;20548;-75
2024/02/07 10:06:03;;;;;;;38.30;36.00;;;5.50;99.90;;;;;;5052961;28;20464;-75
2024/02/07 10:08:32;;;;;;;39.47;37.07;;;5.50;99.90;;;;;;5056366;28;20592;-75
2024/02/07 10:11:01;;;;;;;36.17;33.97;;;5.60;99.90;;;;;;5048956;28;20473;-74
2024/02/07 10:13:28;;;;;;;35.60;33.40;;;5.60;99.90;;;;;;5050428;28;20464;-75
2024/02/07 10:15:55;;;;;;;34.17;32.17;;;5.50;99.90;;;;;;5049611;28;20452;-73
2024/02/07 10:18:23;;;;;;;32.43;30.53;;;5.50;99.90;;;;;;5048286;28;20460;-75
2024/02/07 10:20:53;;;;;;;32.07;30.27;;;5.40;99.90;;;;;;5052587;28;20459;-71
2024/02/07 10:23:21;;;;;;;32.33;30.43;;;5.20;99.90;;;;;;5049567;28;20482;-72
2024/02/07 10:25:51;;;;;;;30.00;28.30;;;5.40;99.90;;;;;;5052339;28;20467;-74
2024/02/07 10:28:18;;;;;;;28.83;27.23;;;5.40;99.90;;;;;;5051051;28;20487;-73
2024/02/07 10:30:57;;;;;;;29.83;28.13;;;5.10;99.90;;;;;;5055996;28;20555;-74
2024/02/07 10:33:25;;;;;;;28.80;27.17;;;5.10;99.90;;;;;;5053090;28;20502;-75
2024/02/07 10:36:00;;;;;;;27.23;25.73;;;5.30;99.90;;;;;;5056743;28;20456;-74
2024/02/07 10:38:28;;;;;;;26.07;24.77;;;5.40;99.90;;;;;;5049943;28;20559;-74
2024/02/07 10:40:56;;;;;;;25.80;24.50;;;5.30;99.90;;;;;;5054815;28;20996;-75
2024/02/07 10:43:27;;;;;;;25.57;24.27;;;5.10;99.90;;;;;;5051981;28;20479;-72
2024/02/07 10:46:01;;;;;;;24.63;23.43;;;5.10;99.90;;;;;;5051608;28;20456;-72
2024/02/07 10:48:29;;;;;;;25.00;23.80;;;5.10;99.90;;;;;;5049950;28;20483;-75
2024/02/07 10:50:57;;;;;;;25.10;23.90;;;5.00;99.90;;;;;;5050986;28;20471;-71
2024/02/07 10:53:23;;;;;;;25.60;24.30;;;5.10;99.90;;;;;;5056705;28;20456;-72
2024/02/07 10:56:06;;;;;;;24.60;23.40;;;5.20;99.90;;;;;;5053144;28;20869;-73
2024/02/07 10:58:35;;;;;;;27.20;25.80;;;5.10;99.90;;;;;;5052359;28;20495;-74
2024/02/07 11:01:03;;;;;;;27.57;26.17;;;5.20;99.90;;;;;;5055103;28;20458;-72
2024/02/07 11:03:30;;;;;;;27.70;26.20;;;5.30;99.90;;;;;;5052737;28;20478;-70
2024/02/07 11:05:58;;;;;;;27.57;26.07;;;5.40;99.90;;;;;;5059908;28;20460;-74
2024/02/07 11:08:26;;;;;;;28.10;26.50;;;5.30;99.90;;;;;;5053674;28;20483;-74
2024/02/07 11:13:52;;;;;;;27.77;26.27;;;5.20;99.90;;;;;;5053218;28;20514;-74
2024/02/07 11:16:19;;;;;;;27.50;26.00;;;5.40;99.90;;;;;;5053457;28;20459;-71
2024/02/07 11:18:47;;;;;;;27.80;26.40;;;5.40;99.90;;;;;;5059706;28;20463;-73
2024/02/07 11:21:23;;;;;;;26.53;25.20;;;5.30;99.90;;;;;;5052447;28;20473;-73
2024/02/07 11:23:52;;;;;;;24.60;23.40;;;5.10;99.90;;;;;;5053648;28;20509;-71
2024/02/07 11:26:20;;;;;;;24.57;23.30;;;5.10;99.90;;;;;;5044109;28;20468;-75
2024/02/07 11:28:48;;;;;;;25.60;24.30;;;5.20;99.90;;;;;;5050162;28;20575;-74
2024/02/07 11:31:17;;;;;;;25.20;23.90;;;5.20;99.90;;;;;;5050063;28;20801;-72
2024/02/07 11:33:47;;;;;;;25.67;24.37;;;5.10;99.90;;;;;;5047597;28;21143;-72
2024/02/07 11:36:18;;;;;;;24.47;23.27;;;5.10;99.90;;;;;;5055976;28;21001;-72
2024/02/07 11:38:48;;;;;;;23.67;22.57;;;5.10;99.90;;;;;;5052230;28;20486;-71
2024/02/07 11:41:19;;;;;;;23.07;21.97;;;5.00;99.90;;;;;;5052732;28;20526;-71
2024/02/07 11:43:47;;;;;;;23.43;22.33;;;4.90;99.90;;;;;;5054311;28;20563;-71
2024/02/07 11:46:19;;;;;;;23.93;22.83;;;4.90;99.90;;;;;;5048873;28;20828;-71
2024/02/07 11:48:51;;;;;;;23.43;22.33;;;4.80;99.90;;;;;;5047537;28;21041;-72
2024/02/07 11:51:18;;;;;;;22.97;21.87;;;4.90;99.90;;;;;;5038344;28;20476;-72
2024/02/07 11:53:46;;;;;;;23.37;22.27;;;4.90;99.90;;;;;;5043355;28;20462;-72
2024/02/07 11:56:14;;;;;;;23.40;22.30;;;4.80;99.90;;;;;;5037716;28;20472;-71
2024/02/07 11:58:43;;;;;;;23.23;22.13;;;4.90;99.90;;;;;;5049039;28;20476;-75
2024/02/07 12:01:11;;;;;;;22.47;21.47;;;4.80;99.90;;;;;;5049865;28;20969;-73
2024/02/07 12:03:39;;;;;;;23.70;22.60;;;4.90;99.90;;;;;;5049693;28;20470;-76
2024/02/07 12:06:08;;;;;;;21.83;20.83;;;4.90;99.90;;;;;;5050544;28;21056;-74
2024/02/07 12:08:36;;;;;;;22.93;21.83;;;4.90;99.90;;;;;;5048021;28;20826;-74
2024/02/07 12:11:04;;;;;;;22.30;21.30;;;5.00;99.90;;;;;;5049728;28;20661;-75
2024/02/07 12:13:31;;;;;;;21.33;20.40;;;5.10;99.90;;;;;;5045937;28;20582;-73
2024/02/07 12:15:59;;;;;;;21.60;20.60;;;5.10;99.90;;;;;;5049008;28;20465;-74
2024/02/07 12:18:27;;;;;;;21.53;20.53;;;5.20;99.90;;;;;;5049371;28;20529;-72
2024/02/07 12:21:00;;;;;;;21.27;20.27;;;5.30;99.90;;;;;;5050704;28;20452;-71
2024/02/07 12:23:27;;;;;;;22.30;21.20;;;5.40;99.90;;;;;;5040598;28;20497;-71
2024/02/07 12:25:57;;;;;;;21.60;20.60;;;5.50;99.90;;;;;;5048260;28;20466;-72
2024/02/07 12:28:26;;;;;;;20.73;19.73;;;5.60;99.90;;;;;;5048447;28;20467;-73
2024/02/07 12:30:55;;;;;;;21.23;20.23;;;5.50;99.90;;;;;;5049604;28;20503;-74
2024/02/07 12:33:23;;;;;;;21.40;20.40;;;5.50;99.90;;;;;;5047577;28;20464;-73
2024/02/07 12:35:56;;;;;;;21.30;20.30;;;5.40;99.90;;;;;;5044313;28;20480;-71
2024/02/07 12:38:23;;;;;;;21.60;20.60;;;5.40;99.90;;;;;;5048083;28;20467;-73
2024/02/07 12:40:51;;;;;;;21.03;20.13;;;5.30;99.90;;;;;;5049519;28;20467;-71
2024/02/07 12:43:19;;;;;;;20.83;19.93;;;5.40;99.90;;;;;;5048649;28;20824;-74
2024/02/07 12:45:51;;;;;;;20.90;20.00;;;5.40;99.90;;;;;;5048116;28;20999;-73
2024/02/07 12:48:17;;;;;;;20.70;19.80;;;5.40;99.90;;;;;;5047039;28;20941;-73
2024/02/07 12:50:44;;;;;;;20.87;19.97;;;5.50;99.90;;;;;;5047217;28;20491;-73
2024/02/07 12:53:13;;;;;;;19.57;18.77;;;5.50;99.90;;;;;;5041244;28;20730;-70
2024/02/07 12:55:40;;;;;;;20.17;19.27;;;5.50;99.90;;;;;;5048580;28;20888;-71
2024/02/07 12:58:07;;;;;;;20.60;19.70;;;5.30;99.90;;;;;;5050558;28;20856;-71
2024/02/07 13:00:34;;;;;;;19.47;18.67;;;5.40;99.90;;;;;;5046105;28;20479;-71
2024/02/07 13:03:02;;;;;;;20.50;19.60;;;5.30;99.90;;;;;;5049399;28;20468;-71
2024/02/07 13:05:29;;;;;;;20.07;19.17;;;5.20;99.90;;;;;;5045092;28;20968;-71
2024/02/07 13:07:56;;;;;;;21.37;20.37;;;5.30;99.90;;;;;;5049652;28;20478;-71
2024/02/07 13:10:25;;;;;;;21.10;20.20;;;5.50;99.90;;;;;;5046929;28;20494;-71
2024/02/07 13:12:52;;;;;;;20.20;19.40;;;5.60;99.90;;;;;;5049131;28;20459;-71
2024/02/07 13:15:20;;;;;;;21.20;20.30;;;5.60;99.90;;;;;;5049423;28;20465;-71
2024/02/07 13:17:48;;;;;;;21.07;20.17;;;5.70;99.90;;;;;;5043413;28;20476;-71
2024/02/07 13:20:15;;;;;;;20.70;19.80;;;5.70;99.90;;;;;;5048185;28;20763;-71
2024/02/07 13:22:42;;;;;;;21.03;20.03;;;5.60;99.90;;;;;;5046028;28;20456;-71
2024/02/07 13:25:10;;;;;;;21.40;20.40;;;5.60;99.90;;;;;;5044618;28;20987;-71
2024/02/07 13:27:38;;;;;;;21.10;20.10;;;5.60;99.90;;;;;;5047856;28;20487;-71
2024/02/07 13:30:07;;;;;;;21.20;20.20;;;5.60;99.90;;;;;;5048803;28;20491;-71
2024/02/07 13:32:34;;;;;;;21.10;20.10;;;5.70;99.90;;;;;;5047237;28;21024;-71
2024/02/07 13:35:01;;;;;;;21.03;20.03;;;5.80;99.90;;;;;;5044670;28;21062;-71
2024/02/07 13:37:28;;;;;;;21.07;20.07;;;5.70;99.90;;;;;;5047977;28;20461;-71
2024/02/07 13:39:55;;;;;;;21.90;20.80;;;5.80;99.90;;;;;;5047279;28;20881;-71
2024/02/07 13:45:06;;;;;;;22.10;21.00;;;5.70;99.90;;;;;;5048705;28;20467;-72